Time;durP1;ratioP1;P1;durP2;ratioP2;P2;SDS_P1;SDS_P2;PMS_P1;PMS_P2;Temp;Humidity;BMP_temperature;BMP_pressure;BME280_temperature;BME280_humidity;BME280_pressure;Samples;Min_cycle;Max_cycle;Signal;HPM_P1;HPM_P2
2023/07/05 00:00:27;;;;;;;13.05;9.00;;;;;;;;;;2568676;23;20001;-93
2023/07/05 00:01:29;;;;;;;14.40;9.02;;;;;;;;;;2556050;23;20392;-93
2023/07/05 00:02:30;;;;;;;13.63;8.90;;;;;;;;;;2572966;23;20023;-92
2023/07/05 00:03:30;;;;;;;10.50;8.43;;;;;;;;;;2568629;23;19997;-93
2023/07/05 00:04:31;;;;;;;13.85;9.15;;;;;;;;;;2556470;23;20128;-91
2023/07/05 00:05:36;;;;;;;13.52;9.20;;;;;;;;;;2573399;23;20096;-91
2023/07/05 00:06:38;;;;;;;12.35;9.63;;;;;;;;;;2574608;23;19997;-92
2023/07/05 00:07:41;;;;;;;13.43;8.50;;;;;;;;;;2574329;23;20003;-92
2023/07/05 00:08:52;;;;;;;14.20;9.02;;;;;;;;;;2568897;23;20008;-92
2023/07/05 00:09:57;;;;;;;12.07;8.77;;;;;;;;;;2572147;23;19985;-93
2023/07/05 00:11:03;;;;;;;13.77;9.27;;;;;;;;;;2569105;23;19988;-93
2023/07/05 00:12:04;;;;;;;14.55;9.15;;;;;;;;;;2573247;23;20018;-94
2023/07/05 00:13:04;;;;;;;13.82;8.95;;;;;;;;;;2569195;23;20003;-93
2023/07/05 00:14:05;;;;;;;12.07;9.07;;;;;;;;;;2556231;23;20020;-92
2023/07/05 00:15:06;;;;;;;12.70;8.98;;;;;;;;;;2568632;23;20003;-93
2023/07/05 00:16:09;;;;;;;21.42;9.20;;;;;;;;;;2568554;23;20019;-92
2023/07/05 00:17:10;;;;;;;12.10;8.25;;;;;;;;;;2572969;23;19996;-92
2023/07/05 00:18:13;;;;;;;14.20;8.95;;;;;;;;;;2569080;23;20082;-92
2023/07/05 00:19:13;;;;;;;12.70;8.27;;;;;;;;;;2557170;23;19997;-93
2023/07/05 00:20:16;;;;;;;12.38;9.02;;;;;;;;;;2573521;23;20000;-93
2023/07/05 00:21:17;;;;;;;11.77;8.35;;;;;;;;;;2569907;23;20031;-93
2023/07/05 00:22:17;;;;;;;12.43;8.70;;;;;;;;;;2569459;23;20455;-92
2023/07/05 00:23:18;;;;;;;12.13;8.35;;;;;;;;;;2573859;23;19997;-93
2023/07/05 00:24:18;;;;;;;13.52;9.13;;;;;;;;;;2569444;23;19992;-93
2023/07/05 00:25:19;;;;;;;11.43;8.60;;;;;;;;;;2569734;23;19996;-93
2023/07/05 00:26:20;;;;;;;12.10;8.85;;;;;;;;;;2557153;23;20007;-93
2023/07/05 00:27:21;;;;;;;10.13;8.30;;;;;;;;;;2569786;23;20066;-93
2023/07/05 00:28:22;;;;;;;11.43;8.15;;;;;;;;;;2573366;23;20056;-91
2023/07/05 00:29:22;;;;;;;11.25;9.05;;;;;;;;;;2566201;23;19997;-91
2023/07/05 00:30:25;;;;;;;10.07;8.10;;;;;;;;;;2565893;23;19997;-92
2023/07/05 00:31:25;;;;;;;13.43;8.57;;;;;;;;;;2583191;23;20327;-92
2023/07/05 00:32:26;;;;;;;12.02;8.68;;;;;;;;;;2580105;23;20067;-93
2023/07/05 00:33:26;;;;;;;13.23;9.18;;;;;;;;;;2575052;23;20000;-92
2023/07/05 00:34:29;;;;;;;15.02;9.40;;;;;;;;;;2569592;23;20433;-93
2023/07/05 00:35:43;;;;;;;;;;;;;;;;;;;;;
2023/07/05 00:36:43;;;;;;;12.27;8.35;;;;;;;;;;2583455;23;20522;-93
2023/07/05 00:37:46;;;;;;;11.98;8.85;;;;;;;;;;2570375;23;20024;-93
2023/07/05 00:38:46;;;;;;;12.80;8.60;;;;;;;;;;2571778;23;19992;-92
2023/07/05 00:39:50;;;;;;;13.80;9.23;;;;;;;;;;2573900;23;20007;-93
2023/07/05 00:40:51;;;;;;;13.35;8.82;;;;;;;;;;2569579;23;20481;-92
2023/07/05 00:41:55;;;;;;;12.90;8.90;;;;;;;;;;2573724;23;19992;-93
2023/07/05 00:42:55;;;;;;;12.93;9.27;;;;;;;;;;2569169;23;19993;-93
2023/07/05 00:43:56;;;;;;;11.52;8.55;;;;;;;;;;2557178;23;20402;-92
2023/07/05 00:45:11;;;;;;;15.27;9.07;;;;;;;;;;2569580;23;20082;-93
2023/07/05 00:46:20;;;;;;;12.48;9.00;;;;;;;;;;2569350;23;20061;-93
2023/07/05 00:47:32;;;;;;;15.07;9.18;;;;;;;;;;2571181;23;20051;-93
2023/07/05 00:48:51;;;;;;;11.27;8.70;;;;;;;;;;2569490;23;19992;-91
2023/07/05 00:50:03;;;;;;;14.13;9.18;;;;;;;;;;2573876;23;19984;-93
2023/07/05 00:51:26;;;;;;;11.48;8.50;;;;;;;;;;2574726;23;20079;-93
2023/07/05 00:52:29;;;;;;;12.77;8.57;;;;;;;;;;2569840;23;20019;-93
2023/07/05 00:53:34;;;;;;;11.95;9.25;;;;;;;;;;2557878;23;20323;-94
2023/07/05 00:54:38;;;;;;;12.27;8.98;;;;;;;;;;2557810;23;20004;-94
2023/07/05 00:55:43;;;;;;;13.38;9.02;;;;;;;;;;2574092;23;19999;-94
2023/07/05 00:57:21;;;;;;;10.73;8.75;;;;;;;;;;2574583;23;20071;-94
2023/07/05 00:58:22;;;;;;;11.73;9.27;;;;;;;;;;2544571;23;20448;-93
2023/07/05 00:59:27;;;;;;;12.48;9.25;;;;;;;;;;2548841;23;20009;-93
2023/07/05 01:00:29;;;;;;;12.38;8.82;;;;;;;;;;2563212;23;20066;-92
2023/07/05 01:01:33;;;;;;;12.80;8.88;;;;;;;;;;2569999;23;20370;-92
2023/07/05 01:02:39;;;;;;;11.15;9.15;;;;;;;;;;2557730;23;20012;-94
2023/07/05 01:03:40;;;;;;;11.75;8.80;;;;;;;;;;2558400;23;20026;-93
2023/07/05 01:04:44;;;;;;;12.32;8.35;;;;;;;;;;2562437;23;20064;-94
2023/07/05 01:05:44;;;;;;;11.95;9.07;;;;;;;;;;2579738;23;20059;-93
2023/07/05 01:06:47;;;;;;;11.20;9.18;;;;;;;;;;2579730;23;20354;-93
2023/07/05 01:07:47;;;;;;;13.05;9.23;;;;;;;;;;2574156;23;19993;-93
2023/07/05 01:08:50;;;;;;;13.85;8.98;;;;;;;;;;2562143;23;20331;-93
2023/07/05 01:09:50;;;;;;;11.65;8.57;;;;;;;;;;2576969;23;20082;-93
2023/07/05 01:10:59;;;;;;;12.85;9.55;;;;;;;;;;2574549;23;19999;-93
2023/07/05 01:12:19;;;;;;;11.50;9.10;;;;;;;;;;2569461;23;20000;-93
2023/07/05 01:13:33;;;;;;;13.15;9.63;;;;;;;;;;2573962;23;20050;-93
2023/07/05 01:14:45;;;;;;;13.43;9.35;;;;;;;;;;2569584;23;20086;-93
2023/07/05 01:16:04;;;;;;;13.48;9.18;;;;;;;;;;2558950;23;19993;-91
2023/07/05 01:17:16;;;;;;;13.20;9.20;;;;;;;;;;2574402;23;20072;-94
2023/07/05 01:18:26;;;;;;;13.98;9.15;;;;;;;;;;2574920;23;19993;-93
2023/07/05 01:19:49;;;;;;;14.23;9.77;;;;;;;;;;2574650;23;19996;-93
2023/07/05 01:21:05;;;;;;;14.15;8.95;;;;;;;;;;2574447;23;20000;-94
2023/07/05 01:22:15;;;;;;;14.80;9.30;;;;;;;;;;2569446;23;19996;-93
2023/07/05 01:23:37;;;;;;;11.68;9.25;;;;;;;;;;2569467;23;20523;-93
2023/07/05 01:25:01;;;;;;;15.23;9.25;;;;;;;;;;2569674;23;20001;-93
2023/07/05 01:26:41;;;;;;;15.57;9.05;;;;;;;;;;2577826;23;19992;-90
2023/07/05 01:27:54;;;;;;;13.75;9.38;;;;;;;;;;2571509;23;19993;-92
2023/07/05 01:29:06;;;;;;;14.60;9.98;;;;;;;;;;2559600;23;20017;-93
2023/07/05 01:30:22;;;;;;;14.70;9.05;;;;;;;;;;2559080;23;20116;-93
2023/07/05 01:31:40;;;;;;;16.08;9.82;;;;;;;;;;2560148;23;20039;-94
2023/07/05 01:32:53;;;;;;;15.02;9.43;;;;;;;;;;2564678;23;20035;-93
2023/07/05 01:34:14;;;;;;;14.50;9.43;;;;;;;;;;2573429;23;19996;-93
2023/07/05 01:35:29;;;;;;;20.02;11.40;;;;;;;;;;2573888;23;20338;-92
2023/07/05 01:36:31;;;;;;;16.58;9.63;;;;;;;;;;2574333;23;19992;-92
2023/07/05 01:37:39;;;;;;;14.52;9.88;;;;;;;;;;2569344;23;20432;-93
2023/07/05 01:38:39;;;;;;;15.20;10.02;;;;;;;;;;2573761;23;19992;-93
2023/07/05 01:39:40;;;;;;;19.27;10.65;;;;;;;;;;2569681;23;20407;-93
2023/07/05 01:40:56;;;;;;;15.73;10.55;;;;;;;;;;2573974;23;19996;-93
2023/07/05 01:41:56;;;;;;;13.55;10.55;;;;;;;;;;2569108;23;20071;-93
2023/07/05 01:43:10;;;;;;;16.25;11.38;;;;;;;;;;2565628;23;20000;-93
2023/07/05 01:44:13;;;;;;;15.10;10.98;;;;;;;;;;2120390;23;10002563;-93
2023/07/05 01:45:17;;;;;;;14.63;11.05;;;;;;;;;;2554777;23;19993;-93
2023/07/05 01:46:26;;;;;;;14.23;11.02;;;;;;;;;;2585375;23;20421;-92
2023/07/05 01:47:33;;;;;;;15.73;10.25;;;;;;;;;;2568980;23;19997;-93
2023/07/05 01:48:41;;;;;;;14.38;10.02;;;;;;;;;;2573877;23;20022;-92
2023/07/05 01:49:44;;;;;;;15.50;10.75;;;;;;;;;;2564736;23;20473;-92
2023/07/05 01:50:52;;;;;;;13.27;10.48;;;;;;;;;;2569345;23;20043;-93
2023/07/05 01:52:02;;;;;;;19.92;11.25;;;;;;;;;;2570513;23;19993;-92
2023/07/05 01:53:11;;;;;;;15.93;10.73;;;;;;;;;;2584596;23;20452;-91
2023/07/05 01:54:23;;;;;;;15.60;11.10;;;;;;;;;;2569066;23;20082;-92
2023/07/05 01:55:33;;;;;;;12.95;10.82;;;;;;;;;;2569309;23;20423;-93
2023/07/05 01:56:49;;;;;;;18.53;11.37;;;;;;;;;;2573461;23;19992;-92
2023/07/05 01:58:07;;;;;;;16.48;11.27;;;;;;;;;;2573760;23;20803;-94
2023/07/05 01:59:11;;;;;;;18.63;11.27;;;;;;;;;;2560362;23;20001;-92
2023/07/05 02:00:18;;;;;;;14.73;11.00;;;;;;;;;;2557394;23;20398;-91
2023/07/05 02:01:21;;;;;;;16.83;11.98;;;;;;;;;;2557861;23;20076;-92
2023/07/05 02:02:31;;;;;;;16.85;11.07;;;;;;;;;;2557030;23;19997;-92
2023/07/05 02:03:33;;;;;;;14.52;11.25;;;;;;;;;;2558730;23;20528;-93
2023/07/05 02:04:35;;;;;;;14.30;11.20;;;;;;;;;;2569885;23;20307;-93
2023/07/05 02:05:37;;;;;;;21.65;10.57;;;;;;;;;;2568916;23;20429;-91
2023/07/05 02:06:39;;;;;;;13.10;10.75;;;;;;;;;;2573468;23;20031;-92
2023/07/05 02:07:43;;;;;;;15.75;11.27;;;;;;;;;;2569161;23;20003;-92
2023/07/05 02:08:49;;;;;;;13.98;10.85;;;;;;;;;;2573826;23;19993;-92
2023/07/05 02:09:49;;;;;;;16.00;10.57;;;;;;;;;;2548561;23;19992;-92
2023/07/05 02:10:50;;;;;;;17.30;11.38;;;;;;;;;;2569556;23;20457;-91
2023/07/05 02:11:50;;;;;;;14.27;10.88;;;;;;;;;;2556730;23;20048;-92
2023/07/05 02:12:52;;;;;;;14.55;11.13;;;;;;;;;;2560836;23;19993;-91
2023/07/05 02:13:53;;;;;;;13.52;10.45;;;;;;;;;;2575784;23;19998;-88
2023/07/05 02:14:53;;;;;;;15.07;11.60;;;;;;;;;;2572127;23;19993;-91
2023/07/05 02:15:54;;;;;;;13.68;10.55;;;;;;;;;;2556851;23;20024;-90
2023/07/05 02:16:54;;;;;;;15.75;10.95;;;;;;;;;;2556666;23;19992;-91
2023/07/05 02:17:55;;;;;;;13.13;10.50;;;;;;;;;;2556871;23;19997;-92
2023/07/05 02:18:55;;;;;;;14.85;10.30;;;;;;;;;;2544285;23;20519;-92
2023/07/05 02:19:56;;;;;;;17.88;11.30;;;;;;;;;;2560829;23;20071;-93
2023/07/05 02:20:57;;;;;;;15.55;10.55;;;;;;;;;;2556522;23;20028;-92
2023/07/05 02:22:00;;;;;;;15.88;11.32;;;;;;;;;;2560858;23;20016;-93
2023/07/05 02:23:00;;;;;;;15.10;10.80;;;;;;;;;;2569011;23;19996;-92
2023/07/05 02:24:01;;;;;;;13.93;11.20;;;;;;;;;;2569210;23;20079;-93
2023/07/05 02:25:01;;;;;;;13.45;10.02;;;;;;;;;;2568781;23;20497;-93
2023/07/05 02:26:04;;;;;;;17.00;11.70;;;;;;;;;;2556779;23;20015;-92
2023/07/05 02:27:06;;;;;;;16.10;11.02;;;;;;;;;;2569303;23;20084;-92
2023/07/05 02:28:08;;;;;;;14.77;10.88;;;;;;;;;;2569058;23;19997;-92
2023/07/05 02:29:09;;;;;;;15.60;11.13;;;;;;;;;;2556648;23;20039;-92
2023/07/05 02:30:10;;;;;;;14.18;11.07;;;;;;;;;;2556529;23;20024;-93
2023/07/05 02:31:11;;;;;;;15.73;11.50;;;;;;;;;;2569363;23;19997;-93
2023/07/05 02:32:14;;;;;;;14.98;10.98;;;;;;;;;;2569400;23;20427;-94
2023/07/05 02:33:14;;;;;;;14.73;10.40;;;;;;;;;;2573512;23;20333;-93
2023/07/05 02:34:15;;;;;;;17.10;11.00;;;;;;;;;;2569361;23;19993;-93
2023/07/05 02:35:15;;;;;;;13.27;10.07;;;;;;;;;;2573354;23;20500;-92
2023/07/05 02:36:17;;;;;;;15.85;10.82;;;;;;;;;;2573903;23;19992;-92
2023/07/05 02:37:18;;;;;;;15.50;11.07;;;;;;;;;;2569432;23;20407;-93
2023/07/05 02:38:20;;;;;;;16.27;11.68;;;;;;;;;;2573509;23;20063;-93
2023/07/05 02:39:20;;;;;;;17.00;11.55;;;;;;;;;;2556877;23;20005;-93
2023/07/05 02:40:23;;;;;;;15.40;10.70;;;;;;;;;;2560969;23;20028;-92
2023/07/05 02:41:23;;;;;;;18.00;11.35;;;;;;;;;;2556411;23;20451;-91
2023/07/05 02:42:25;;;;;;;14.73;11.43;;;;;;;;;;2560635;23;20060;-92
2023/07/05 02:43:27;;;;;;;17.10;11.43;;;;;;;;;;2555974;23;20000;-93
2023/07/05 02:44:28;;;;;;;14.30;10.55;;;;;;;;;;2544550;23;20002;-91
2023/07/05 02:45:31;;;;;;;14.77;11.10;;;;;;;;;;2544374;23;19994;-91
2023/07/05 02:46:33;;;;;;;14.77;11.57;;;;;;;;;;2557272;23;20000;-92
2023/07/05 02:47:33;;;;;;;16.95;12.23;;;;;;;;;;2556980;23;20005;-92
2023/07/05 02:48:34;;;;;;;15.00;11.35;;;;;;;;;;2544688;23;20068;-93
2023/07/05 02:49:34;;;;;;;16.23;12.05;;;;;;;;;;2556571;23;20055;-93
2023/07/05 02:50:38;;;;;;;16.65;11.32;;;;;;;;;;2556771;23;20082;-94
2023/07/05 02:51:39;;;;;;;14.40;10.82;;;;;;;;;;2561496;23;20098;-93
2023/07/05 02:52:39;;;;;;;14.45;11.73;;;;;;;;;;2569048;23;20027;-91
2023/07/05 02:53:40;;;;;;;16.13;11.00;;;;;;;;;;2573498;23;19992;-92
2023/07/05 02:54:41;;;;;;;15.77;11.48;;;;;;;;;;2556927;23;20021;-93
2023/07/05 02:55:42;;;;;;;14.90;12.18;;;;;;;;;;2557213;23;20465;-92
2023/07/05 02:56:45;;;;;;;16.67;11.70;;;;;;;;;;2560615;23;20017;-92
2023/07/05 02:57:46;;;;;;;16.70;11.93;;;;;;;;;;2549886;23;19994;-92
2023/07/05 02:58:46;;;;;;;16.10;11.90;;;;;;;;;;2561557;23;20304;-92
2023/07/05 02:59:47;;;;;;;16.77;12.73;;;;;;;;;;2574242;23;20342;-93
2023/07/05 03:00:47;;;;;;;15.13;11.88;;;;;;;;;;2557103;23;19999;-92
2023/07/05 03:01:47;;;;;;;15.52;11.90;;;;;;;;;;2545591;23;19993;-91
2023/07/05 03:02:51;;;;;;;16.35;12.18;;;;;;;;;;2558588;23;20009;-93
2023/07/05 03:03:51;;;;;;;13.82;11.68;;;;;;;;;;2544866;23;20455;-94
2023/07/05 03:04:54;;;;;;;17.58;11.88;;;;;;;;;;2545069;23;20048;-95
2023/07/05 03:05:58;;;;;;;16.80;12.50;;;;;;;;;;2544801;23;19990;-94
2023/07/05 03:06:59;;;;;;;15.82;11.48;;;;;;;;;;2545492;23;20001;-93
2023/07/05 03:07:59;;;;;;;17.48;12.00;;;;;;;;;;2544635;23;20079;-93
2023/07/05 03:09:00;;;;;;;17.35;12.52;;;;;;;;;;2532783;23;20211;-94
2023/07/05 03:10:00;;;;;;;14.55;11.75;;;;;;;;;;2557028;23;19993;-95
2023/07/05 03:11:01;;;;;;;16.17;12.52;;;;;;;;;;2556787;23;20366;-95
2023/07/05 03:12:05;;;;;;;16.20;11.52;;;;;;;;;;2532515;23;20002;-94
2023/07/05 03:13:06;;;;;;;17.88;11.27;;;;;;;;;;2533319;23;20002;-93
2023/07/05 03:14:07;;;;;;;18.30;12.23;;;;;;;;;;2549241;23;20027;-95
2023/07/05 03:15:07;;;;;;;18.88;11.43;;;;;;;;;;2544897;23;20009;-94
2023/07/05 03:16:08;;;;;;;16.05;11.90;;;;;;;;;;2111512;23;10213620;-93
2023/07/05 03:17:08;;;;;;;16.25;12.10;;;;;;;;;;2544766;23;20439;-93
2023/07/05 03:18:11;;;;;;;17.77;12.38;;;;;;;;;;2532978;23;20057;-95
2023/07/05 03:19:15;;;;;;;19.17;12.65;;;;;;;;;;2533051;23;20001;-94
2023/07/05 03:20:18;;;;;;;17.58;11.68;;;;;;;;;;2545342;23;20064;-93
2023/07/05 03:21:18;;;;;;;15.50;11.88;;;;;;;;;;2561308;23;20364;-94
2023/07/05 03:22:18;;;;;;;16.08;12.48;;;;;;;;;;2544959;23;20004;-94
2023/07/05 03:23:20;;;;;;;16.25;11.32;;;;;;;;;;2535490;23;20002;-95
2023/07/05 03:24:23;;;;;;;16.73;11.48;;;;;;;;;;2557343;23;19993;-95
2023/07/05 03:25:24;;;;;;;17.90;11.80;;;;;;;;;;2565384;23;19997;-94
2023/07/05 03:26:25;;;;;;;18.98;12.55;;;;;;;;;;2566832;23;20003;-94
2023/07/05 03:27:28;;;;;;;16.77;11.43;;;;;;;;;;2560723;23;20173;-95
2023/07/05 03:28:32;;;;;;;15.13;11.52;;;;;;;;;;2548098;23;19998;-94
2023/07/05 03:29:35;;;;;;;16.70;12.20;;;;;;;;;;2542192;23;20032;-93
2023/07/05 03:30:36;;;;;;;18.02;12.68;;;;;;;;;;2558740;23;19998;-92
2023/07/05 03:31:36;;;;;;;17.52;12.15;;;;;;;;;;2564528;23;19997;-91
2023/07/05 03:32:39;;;;;;;16.05;11.32;;;;;;;;;;2568242;23;20012;-91
2023/07/05 03:33:40;;;;;;;16.27;12.50;;;;;;;;;;2557458;23;19997;-95
2023/07/05 03:34:41;;;;;;;17.63;12.23;;;;;;;;;;2545152;23;19998;-96
2023/07/05 03:35:41;;;;;;;16.42;11.52;;;;;;;;;;2544786;23;20077;-95
2023/07/05 03:36:42;;;;;;;16.25;11.93;;;;;;;;;;2556741;23;20405;-93
2023/07/05 03:37:42;;;;;;;16.95;11.80;;;;;;;;;;2544877;23;20458;-95
2023/07/05 03:38:43;;;;;;;16.42;13.23;;;;;;;;;;2544625;23;20316;-94
2023/07/05 03:39:44;;;;;;;17.10;13.18;;;;;;;;;;2544335;23;20099;-95
2023/07/05 03:40:44;;;;;;;17.10;12.05;;;;;;;;;;2544832;23;20072;-95
2023/07/05 03:41:45;;;;;;;16.02;12.15;;;;;;;;;;2544987;23;19997;-95
2023/07/05 03:42:45;;;;;;;18.02;12.98;;;;;;;;;;2549275;23;20490;-94
2023/07/05 03:43:51;;;;;;;21.40;12.93;;;;;;;;;;2544587;23;19997;-94
2023/07/05 03:44:54;;;;;;;18.90;13.10;;;;;;;;;;2533691;23;20001;-95
2023/07/05 03:45:57;;;;;;;16.42;11.63;;;;;;;;;;2533223;23;19998;-95
2023/07/05 03:46:57;;;;;;;16.98;12.10;;;;;;;;;;2545050;23;20084;-93
2023/07/05 03:47:58;;;;;;;17.92;13.13;;;;;;;;;;2544593;23;20041;-95
2023/07/05 03:48:58;;;;;;;17.27;12.07;;;;;;;;;;2544637;23;20029;-94
2023/07/05 03:49:58;;;;;;;19.00;12.25;;;;;;;;;;2565210;23;20072;-93
2023/07/05 03:51:00;;;;;;;18.38;12.93;;;;;;;;;;2565194;23;20016;-94
2023/07/05 03:52:00;;;;;;;16.17;13.05;;;;;;;;;;2557444;23;20004;-95
2023/07/05 03:53:00;;;;;;;18.73;14.45;;;;;;;;;;2557043;23;20480;-95
2023/07/05 03:54:01;;;;;;;16.48;13.05;;;;;;;;;;2544801;23;20001;-96
2023/07/05 03:55:01;;;;;;;20.58;14.25;;;;;;;;;;2544943;23;20160;-95
2023/07/05 03:56:04;;;;;;;16.90;12.95;;;;;;;;;;2544870;23;20021;-95
2023/07/05 03:57:07;;;;;;;19.83;13.80;;;;;;;;;;2545934;23;20016;-95
2023/07/05 03:58:10;;;;;;;19.67;13.48;;;;;;;;;;2563398;23;20005;-94
2023/07/05 03:59:11;;;;;;;21.17;13.23;;;;;;;;;;2554350;23;20017;-94
2023/07/05 04:00:12;;;;;;;17.05;13.00;;;;;;;;;;2550274;23;20001;-94
2023/07/05 04:01:23;;;;;;;17.10;12.82;;;;;;;;;;2546293;23;20001;-95
2023/07/05 04:02:23;;;;;;;17.58;13.75;;;;;;;;;;2551269;23;20343;-94
2023/07/05 04:03:23;;;;;;;21.73;14.68;;;;;;;;;;2558033;23;19993;-94
2023/07/05 04:04:24;;;;;;;18.55;12.80;;;;;;;;;;2570334;23;20484;-96
2023/07/05 04:05:24;;;;;;;19.08;13.73;;;;;;;;;;2557620;23;19993;-96
2023/07/05 04:06:27;;;;;;;16.63;13.65;;;;;;;;;;2545570;23;19997;-95
2023/07/05 04:07:30;;;;;;;20.67;13.80;;;;;;;;;;2558118;23;19997;-95
2023/07/05 04:08:31;;;;;;;20.20;14.55;;;;;;;;;;2574397;23;20105;-95
2023/07/05 04:09:31;;;;;;;19.20;13.95;;;;;;;;;;2557492;23;20047;-95
2023/07/05 04:10:32;;;;;;;19.35;13.90;;;;;;;;;;2545401;23;20405;-96
2023/07/05 04:11:32;;;;;;;18.80;14.00;;;;;;;;;;2557328;23;20395;-95
2023/07/05 04:12:33;;;;;;;19.08;14.45;;;;;;;;;;2557527;23;20075;-95
2023/07/05 04:13:34;;;;;;;21.83;14.55;;;;;;;;;;2561591;23;19992;-95
2023/07/05 04:14:34;;;;;;;21.23;14.50;;;;;;;;;;2571981;23;20516;-96
2023/07/05 04:15:35;;;;;;;21.80;14.65;;;;;;;;;;2557560;23;20005;-96
2023/07/05 04:16:35;;;;;;;20.80;14.02;;;;;;;;;;2557863;23;20016;-96
2023/07/05 04:17:43;;;;;;;18.48;14.15;;;;;;;;;;2570047;23;20000;-95
2023/07/05 04:18:46;;;;;;;17.38;13.30;;;;;;;;;;2561842;23;19993;-93
2023/07/05 04:19:46;;;;;;;18.98;13.18;;;;;;;;;;2545613;23;19993;-94
2023/07/05 04:20:49;;;;;;;19.05;14.10;;;;;;;;;;2557790;23;20003;-94
2023/07/05 04:21:50;;;;;;;21.77;14.63;;;;;;;;;;2557867;23;19993;-93
2023/07/05 04:22:57;;;;;;;20.27;13.00;;;;;;;;;;2561953;23;19999;-93
2023/07/05 04:23:58;;;;;;;19.63;13.95;;;;;;;;;;2569776;23;20431;-93
2023/07/05 04:25:01;;;;;;;17.65;14.20;;;;;;;;;;2573773;23;20037;-94
2023/07/05 04:26:09;;;;;;;20.40;14.13;;;;;;;;;;2569830;23;20438;-94
2023/07/05 04:27:10;;;;;;;20.77;13.95;;;;;;;;;;2561523;23;20028;-95
2023/07/05 04:28:10;;;;;;;17.40;12.88;;;;;;;;;;2557381;23;20413;-93
2023/07/05 04:29:11;;;;;;;19.70;14.07;;;;;;;;;;2557759;23;20039;-94
2023/07/05 04:30:14;;;;;;;18.95;13.68;;;;;;;;;;2556566;23;20083;-93
2023/07/05 04:31:21;;;;;;;21.23;13.10;;;;;;;;;;2569824;23;20520;-94
2023/07/05 04:32:24;;;;;;;21.42;14.35;;;;;;;;;;2574351;23;20339;-94
2023/07/05 04:33:25;;;;;;;20.65;13.70;;;;;;;;;;2558337;23;20485;-96
2023/07/05 04:34:26;;;;;;;18.30;13.30;;;;;;;;;;2545542;23;19997;-95
2023/07/05 04:36:00;;;;;;;16.52;13.43;;;;;;;;;;2545300;23;20455;-95
2023/07/05 04:42:01;;;;;;;;;;;;;;;;;;;;;
2023/07/05 04:58:38;;;;;;;14.80;10.30;;;;;;;;;;2442971;24;20001;-96
2023/07/05 05:08:06;;;;;;;15.65;10.55;;;;;;;;;;2443318;24;20009;-95
2023/07/05 05:09:17;;;;;;;12.63;9.90;;;;;;;;;;2444399;23;20079;-96
2023/07/05 05:10:20;;;;;;;;;;;;;;;;;;2474339;24;19996;-96
2023/07/05 05:11:31;;;;;;;14.80;9.43;;;;;;;;;;2460410;24;19994;-96
2023/07/05 05:12:36;;;;;;;12.45;9.52;;;;;;;;;;2026394;24;10446782;-95
2023/07/05 05:20:00;;;;;;;11.10;9.30;;;;;;;;;;2467354;24;20005;-96
2023/07/05 05:21:30;;;;;;;11.82;9.55;;;;;;;;;;2462573;24;20012;-96
2023/07/05 05:23:00;;;;;;;11.32;9.50;;;;;;;;;;2520503;23;19999;-95
2023/07/05 05:24:13;;;;;;;9.95;8.43;;;;;;;;;;2515820;23;20002;-95
2023/07/05 05:25:24;;;;;;;10.40;9.10;;;;;;;;;;2503964;23;20091;-92
2023/07/05 05:26:24;;;;;;;11.80;8.80;;;;;;;;;;2564892;23;20071;-95
2023/07/05 05:27:28;;;;;;;11.13;9.02;;;;;;;;;;2570426;23;20052;-96
2023/07/05 05:28:30;;;;;;;10.73;9.02;;;;;;;;;;2570389;23;20023;-96
2023/07/05 05:29:34;;;;;;;9.95;8.85;;;;;;;;;;2570174;23;20005;-96
2023/07/05 05:30:37;;;;;;;9.50;8.48;;;;;;;;;;2558655;23;19997;-96
2023/07/05 05:31:44;;;;;;;10.57;9.32;;;;;;;;;;2547467;23;20005;-96
2023/07/05 05:32:46;;;;;;;10.25;8.65;;;;;;;;;;2552076;23;20056;-96
2023/07/05 05:33:54;;;;;;;12.02;9.95;;;;;;;;;;2545650;23;20025;-95
2023/07/05 05:39:48;;;;;;;14.70;9.88;;;;;;;;;;2514912;23;19991;-96
2023/07/05 05:40:53;;;;;;;12.55;11.23;;;;;;;;;;2539529;23;20004;-95
2023/07/05 05:42:06;;;;;;;13.48;10.40;;;;;;;;;;2558269;23;20013;-96
2023/07/05 05:43:45;;;;;;;12.95;11.10;;;;;;;;;;2547838;23;19998;-95
2023/07/05 05:44:58;;;;;;;11.63;10.43;;;;;;;;;;2506276;23;20308;-94
2023/07/05 05:45:59;;;;;;;11.43;9.88;;;;;;;;;;2569797;23;20000;-94
2023/07/05 05:47:02;;;;;;;11.68;10.10;;;;;;;;;;2569836;23;20024;-95
2023/07/05 05:48:35;;;;;;;17.42;10.65;;;;;;;;;;2569647;23;20459;-95
2023/07/05 05:49:35;;;;;;;11.93;9.10;;;;;;;;;;2557383;23;19997;-94
2023/07/05 05:50:52;;;;;;;9.57;8.57;;;;;;;;;;2557291;23;19993;-96
2023/07/05 05:52:14;;;;;;;12.02;9.50;;;;;;;;;;2574155;23;20099;-96
2023/07/05 05:53:22;;;;;;;10.70;8.80;;;;;;;;;;2569970;23;20008;-94
2023/07/05 05:54:27;;;;;;;12.57;10.25;;;;;;;;;;2557677;23;19993;-96
2023/07/05 05:55:35;;;;;;;11.23;10.02;;;;;;;;;;2559651;23;20015;-96
2023/07/05 05:56:39;;;;;;;11.63;10.13;;;;;;;;;;2561204;23;20035;-95
2023/07/05 05:58:00;;;;;;;14.32;10.00;;;;;;;;;;2115481;23;10364127;-95
2023/07/05 05:59:00;;;;;;;17.13;10.75;;;;;;;;;;2557317;23;20005;-95
2023/07/05 06:04:54;;;;;;;10.70;9.32;;;;;;;;;;2554226;23;20065;-96
2023/07/05 06:06:31;;;;;;;10.45;9.30;;;;;;;;;;2545788;23;19994;-96
2023/07/05 06:07:31;;;;;;;10.00;8.95;;;;;;;;;;2532178;23;20002;-96
2023/07/05 06:08:34;;;;;;;11.60;8.88;;;;;;;;;;2532785;23;20332;-96
2023/07/05 06:09:53;;;;;;;9.73;8.82;;;;;;;;;;2548919;23;20392;-95
2023/07/05 06:10:58;;;;;;;13.90;9.55;;;;;;;;;;2570774;23;20443;-96
2023/07/05 06:11:58;;;;;;;9.23;8.32;;;;;;;;;;2561648;23;20020;-95
2023/07/05 06:12:59;;;;;;;8.88;8.07;;;;;;;;;;2554829;23;20045;-93
2023/07/05 06:13:59;;;;;;;11.63;9.15;;;;;;;;;;2548665;23;20095;-96
2023/07/05 06:15:00;;;;;;;10.75;8.43;;;;;;;;;;2557745;23;20322;-94
2023/07/05 06:16:02;;;;;;;10.05;8.60;;;;;;;;;;2557767;23;20053;-94
2023/07/05 06:17:03;;;;;;;10.02;8.38;;;;;;;;;;2545294;23;20001;-96
2023/07/05 06:18:03;;;;;;;11.02;7.90;;;;;;;;;;2545074;23;19997;-95
2023/07/05 06:19:04;;;;;;;9.95;8.77;;;;;;;;;;2544927;23;20452;-95
2023/07/05 06:20:08;;;;;;;9.73;8.27;;;;;;;;;;2544500;23;20435;-95
2023/07/05 06:21:10;;;;;;;9.27;7.82;;;;;;;;;;2545307;23;20356;-96
2023/07/05 06:22:13;;;;;;;9.70;7.90;;;;;;;;;;2557303;23;20008;-96
2023/07/05 06:23:34;;;;;;;9.57;8.57;;;;;;;;;;2574933;23;19996;-94
2023/07/05 06:24:35;;;;;;;8.30;7.50;;;;;;;;;;2575371;23;20006;-96
2023/07/05 06:32:46;;;;;;;9.13;8.00;;;;;;;;;;2567138;22;20034;-94
2023/07/05 06:34:10;;;;;;;7.97;7.20;;;;;;;;;;2578445;22;20011;-95
2023/07/05 06:35:20;;;;;;;;;;;;;;;;;;;;;
2023/07/05 06:37:04;;;;;;;8.43;6.80;;;;;;;;;;2547363;23;20005;-94
2023/07/05 06:38:05;;;;;;;8.23;7.40;;;;;;;;;;2568015;23;20115;-95
2023/07/05 06:39:05;;;;;;;8.43;7.45;;;;;;;;;;2556978;23;20001;-95
2023/07/05 06:40:17;;;;;;;9.60;7.35;;;;;;;;;;2558038;23;20008;-95
2023/07/05 06:41:21;;;;;;;10.93;6.65;;;;;;;;;;2560510;23;19997;-96
2023/07/05 06:43:12;;;;;;;6.60;5.97;;;;;;;;;;2560941;23;20064;-92
2023/07/05 06:44:21;;;;;;;9.48;6.43;;;;;;;;;;2542832;23;19998;-96
2023/07/05 06:45:26;;;;;;;8.43;6.93;;;;;;;;;;2565512;23;20011;-96
2023/07/05 06:46:55;;;;;;;7.38;6.68;;;;;;;;;;2574510;23;19996;-95
2023/07/05 06:48:11;;;;;;;7.28;6.57;;;;;;;;;;2547339;23;20004;-96
2023/07/05 06:49:16;;;;;;;8.43;7.07;;;;;;;;;;2582097;23;20015;-95
2023/07/05 06:50:17;;;;;;;8.63;6.78;;;;;;;;;;2590070;23;20004;-95
2023/07/05 06:51:30;;;;;;;;;;;;;;;;;;;;;
2023/07/05 06:52:38;;;;;;;7.65;5.82;;;;;;;;;;2569694;23;20079;-96
2023/07/05 06:53:39;;;;;;;7.50;5.55;;;;;;;;;;2590526;23;20453;-96
2023/07/05 06:54:42;;;;;;;7.53;5.90;;;;;;;;;;2574870;23;19999;-96
2023/07/05 06:56:04;;;;;;;;;;;;;;;;;;;;;
2023/07/05 06:57:27;;;;;;;10.18;6.03;;;;;;;;;;2584718;23;20020;-96
2023/07/05 06:58:34;;;;;;;6.72;5.88;;;;;;;;;;2573509;23;20087;-96
2023/07/05 06:59:43;;;;;;;6.53;5.53;;;;;;;;;;2573690;23;19993;-96
2023/07/05 07:00:50;;;;;;;6.32;5.72;;;;;;;;;;2583732;23;20519;-96
2023/07/05 07:01:54;;;;;;;8.43;5.65;;;;;;;;;;2565253;23;20116;-96
2023/07/05 07:05:11;;;;;;;6.75;6.15;;;;;;;;;;2566254;23;20023;-95
2023/07/05 07:12:53;;;;;;;9.80;6.38;;;;;;;;;;2579404;22;20012;-95
2023/07/05 07:14:01;;;;;;;7.18;6.40;;;;;;;;;;2582089;23;20422;-95
2023/07/05 07:15:04;;;;;;;11.20;6.50;;;;;;;;;;2570695;23;19997;-95
2023/07/05 07:16:13;;;;;;;9.43;6.97;;;;;;;;;;2571974;23;20036;-96
2023/07/05 07:17:17;;;;;;;7.40;6.70;;;;;;;;;;2572633;23;20060;-96
2023/07/05 07:18:37;;;;;;;7.10;5.93;;;;;;;;;;2566131;23;19985;-96
2023/07/05 07:19:45;;;;;;;7.50;6.25;;;;;;;;;;2564008;23;20089;-96
2023/07/05 07:20:55;;;;;;;8.95;6.18;;;;;;;;;;2563190;23;20448;-95
2023/07/05 07:21:55;;;;;;;9.38;6.15;;;;;;;;;;2559385;23;20080;-95
2023/07/05 07:22:59;;;;;;;6.97;6.28;;;;;;;;;;2557377;23;19993;-95
2023/07/05 07:24:28;;;;;;;10.38;6.10;;;;;;;;;;2562686;23;20005;-96
2023/07/05 07:25:28;;;;;;;8.85;6.03;;;;;;;;;;2580371;23;20000;-96
2023/07/05 07:26:56;;;;;;;7.18;5.95;;;;;;;;;;2569484;23;20015;-96